Terminal Aerodrome Forecast
Issued by NWS

Home | Current Version | Previous Version | Text Only | Print | Product List | Glossary On
Versions: 1 2 3 4 5 6 7 8 9 10 11 12 13 14 15 16 17 18 19 20 21 22 23
757
FTUS43 KLSX 151743
TAFSUS
TAF
KSUS 151743Z 1518/1618 10004KT 2SM -RA OVC007
     FM152000 VRB03KT P6SM VCSH OVC008
     FM160400 11005KT P6SM OVC003
     FM161500 12007KT 3SM -RA OVC003=

USA.gov is the U.S. government's official web portal to all federal, state and local government web resources and services.